Time;durP1;ratioP1;P1;durP2;ratioP2;P2;SDS_P1;SDS_P2;PMS_P1;PMS_P2;Temp;Humidity;BMP_temperature;BMP_pressure;BME280_temperature;BME280_humidity;BME280_pressure;Samples;Min_cycle;Max_cycle;Signal;HPM_P1;HPM_P2
2021/04/27 00:00:10;;;;;;;21.12;9.95;;;;;;;3.61;63.65;98861.36;1821324;79;21112;-65
2021/04/27 00:02:38;;;;;;;16.55;9.45;;;;;;;3.60;63.84;98860.88;1815695;79;21136;-65
2021/04/27 00:05:09;;;;;;;16.90;9.83;;;;;;;3.56;63.91;98857.77;1812945;79;21272;-64
2021/04/27 00:07:37;;;;;;;16.95;9.10;;;;;;;3.52;64.03;98850.80;1812752;79;21289;-63
2021/04/27 00:10:08;;;;;;;15.68;7.90;;;;;;;3.50;64.23;98851.14;1812949;79;21132;-64
2021/04/27 00:12:37;;;;;;;15.23;7.83;;;;;;;3.49;64.51;98857.08;1812935;79;21176;-65
2021/04/27 00:15:10;;;;;;;16.50;7.28;;;;;;;3.47;64.74;98859.55;1813078;79;21550;-66
2021/04/27 00:17:38;;;;;;;17.60;9.28;;;;;;;3.44;64.90;98858.58;1812742;79;21314;-66
2021/04/27 00:20:08;;;;;;;13.18;6.85;;;;;;;3.42;65.05;98864.89;1813019;79;21148;-65
2021/04/27 00:22:36;;;;;;;16.82;7.72;;;;;;;3.42;65.22;98870.41;1812938;79;21144;-64
2021/04/27 00:25:06;;;;;;;14.35;6.70;;;;;;;3.40;65.39;98866.51;1812849;79;21179;-64
2021/04/27 00:27:34;;;;;;;14.83;6.95;;;;;;;3.39;65.54;98872.84;1812879;79;21728;-65
2021/04/27 00:30:06;;;;;;;17.02;8.60;;;;;;;3.36;65.72;98869.77;1812918;79;21294;-64
2021/04/27 00:32:34;;;;;;;10.80;6.62;;;;;;;3.34;65.86;98873.94;1812949;79;21189;-65
2021/04/27 00:35:04;;;;;;;14.15;6.95;;;;;;;3.33;66.16;98875.14;1812851;79;21147;-65
2021/04/27 00:37:31;;;;;;;16.52;7.00;;;;;;;3.29;66.39;98878.41;1812915;79;21176;-65
2021/04/27 00:39:59;;;;;;;18.75;7.60;;;;;;;3.29;66.52;98877.13;1812873;79;21160;-64
2021/04/27 00:42:33;;;;;;;11.78;6.80;;;;;;;3.30;66.65;98882.69;1812898;79;21160;-64
2021/04/27 00:45:02;;;;;;;14.63;6.92;;;;;;;3.31;66.70;98876.76;1812984;79;21140;-64
2021/04/27 00:47:30;;;;;;;14.18;6.62;;;;;;;3.30;66.81;98880.13;1812795;79;21287;-64
2021/04/27 00:49:57;;;;;;;11.95;6.62;;;;;;;3.29;66.94;98870.34;1813002;79;21113;-64
2021/04/27 00:52:25;;;;;;;15.35;7.42;;;;;;;3.27;67.06;98871.96;1812716;79;21163;-66
2021/04/27 00:54:53;;;;;;;13.50;7.12;;;;;;;3.24;67.31;98873.13;1812835;79;21136;-64
2021/04/27 00:57:22;;;;;;;13.58;7.10;;;;;;;3.22;67.44;98874.73;1812703;79;21290;-66
2021/04/27 00:59:52;;;;;;;13.60;7.20;;;;;;;3.22;67.54;98878.16;1812760;79;21128;-63
2021/04/27 01:02:20;;;;;;;14.15;6.97;;;;;;;3.21;67.67;98877.70;1812611;79;21164;-65
2021/04/27 01:04:47;;;;;;;13.68;6.20;;;;;;;3.20;67.70;98881.05;1812924;79;21132;-65
2021/04/27 01:07:19;;;;;;;22.70;6.85;;;;;;;3.19;67.87;98874.63;1812843;79;21124;-63
2021/04/27 01:09:58;;;;;;;12.30;6.37;;;;;;;3.17;68.02;98874.56;1790539;79;21569;-64
2021/04/27 01:12:37;;;;;;;14.43;6.78;;;;;;;3.14;68.24;98875.72;1812955;79;21164;-63
2021/04/27 01:15:16;;;;;;;10.60;5.97;;;;;;;3.12;68.48;98882.43;1816850;79;21349;-64
2021/04/27 01:17:57;;;;;;;12.20;6.45;;;;;;;3.16;68.72;98875.38;1889956;76;22176;-65
2021/04/27 01:20:40;;;;;;;13.72;6.67;;;;;;;3.10;68.85;98882.77;1791773;80;21153;-65
2021/04/27 01:23:24;;;;;;;13.62;6.33;;;;;;;3.09;69.02;98881.05;1823409;79;21146;-65
2021/04/27 01:26:16;;;;;;;10.38;5.92;;;;;;;3.05;69.19;98877.90;1791494;80;21592;-66
2021/04/27 01:28:48;;;;;;;11.53;5.90;;;;;;;3.00;69.39;98884.12;1791361;80;21153;-64
2021/04/27 01:31:17;;;;;;;10.58;5.78;;;;;;;2.99;69.93;98890.00;1791509;80;21170;-64
2021/04/27 01:33:46;;;;;;;14.20;5.70;;;;;;;2.96;70.12;98883.92;1791714;80;21276;-63
2021/04/27 01:36:15;;;;;;;13.38;7.40;;;;;;;2.93;70.37;98885.95;1791485;80;21280;-64
2021/04/27 01:38:45;;;;;;;12.10;5.72;;;;;;;2.89;70.79;98879.39;1790775;80;21141;-65
2021/04/27 01:41:13;;;;;;;12.05;5.65;;;;;;;2.85;70.96;98882.61;1791788;80;21162;-64
2021/04/27 01:43:45;;;;;;;11.43;6.15;;;;;;;2.86;71.09;98878.00;1791510;80;21611;-73
2021/04/27 01:48:55;;;;;;;16.52;6.30;;;;;;;2.90;71.52;98876.02;1870546;76;22140;-65
2021/04/27 01:51:27;;;;;;;16.65;6.47;;;;;;;2.82;71.66;98877.88;1827522;77;21273;-67
2021/04/27 01:53:57;;;;;;;14.33;5.70;;;;;;;2.83;71.83;98888.53;1824876;77;21315;-66
2021/04/27 01:56:27;;;;;;;10.43;5.90;;;;;;;2.79;72.06;98879.42;1827560;77;21150;-66
2021/04/27 01:58:55;;;;;;;10.60;5.15;;;;;;;2.78;72.23;98882.38;1827850;78;21280;-65
2021/04/27 02:01:26;;;;;;;11.55;5.22;;;;;;;2.76;72.41;98886.53;1827031;78;21275;-68
2021/04/27 02:03:56;;;;;;;10.20;5.42;;;;;;;2.77;72.67;98888.67;1827715;77;21138;-65
2021/04/27 02:06:26;;;;;;;8.63;5.60;;;;;;;2.73;72.95;98883.88;1826978;78;21596;-65
2021/04/27 02:09:09;;;;;;;10.13;4.78;;;;;;;2.71;73.06;98884.20;1827493;77;21134;-65
2021/04/27 02:11:47;;;;;;;10.20;5.20;;;;;;;2.75;73.36;98879.72;1890035;76;22583;-65
2021/04/27 02:14:15;;;;;;;10.43;6.00;;;;;;;2.68;73.54;98886.64;1791901;80;21158;-65
2021/04/27 02:16:58;;;;;;;9.98;5.45;;;;;;;2.70;73.67;98894.36;1823789;79;21139;-69
2021/04/27 02:19:30;;;;;;;9.98;5.95;;;;;;;2.70;73.76;98887.58;1791654;80;21142;-67
2021/04/27 02:22:09;;;;;;;12.80;6.90;;;;;;;2.69;73.89;98891.32;1737505;80;21173;-66
2021/04/27 02:24:42;;;;;;;14.15;6.70;;;;;;;2.70;73.90;98895.22;1781127;80;21307;-66
2021/04/27 02:27:13;;;;;;;13.22;7.03;;;;;;;2.71;73.95;98899.91;1760742;80;21154;-68
2021/04/27 02:29:41;;;;;;;10.38;5.35;;;;;;;2.72;73.97;98887.24;1791899;80;21161;-70
2021/04/27 02:32:11;;;;;;;9.83;5.40;;;;;;;2.70;74.23;98899.05;1790435;80;21687;-70
2021/04/27 02:34:43;;;;;;;12.00;6.75;;;;;;;2.68;74.36;98894.28;1791759;80;21690;-69
2021/04/27 02:37:16;;;;;;;9.85;5.00;;;;;;;2.65;74.42;98894.16;1791633;80;21555;-69
2021/04/27 02:39:44;;;;;;;11.03;5.95;;;;;;;2.60;74.62;98895.23;1791685;80;21317;-68
2021/04/27 02:42:12;;;;;;;11.43;6.00;;;;;;;2.61;74.84;98885.91;1791475;80;21153;-63
2021/04/27 02:44:58;;;;;;;13.95;5.60;;;;;;;2.61;75.08;98885.50;1791460;80;21142;-67
2021/04/27 02:47:28;;;;;;;8.85;4.85;;;;;;;2.62;75.19;98887.67;1786131;80;21161;-66
2021/04/27 02:49:56;;;;;;;9.30;4.70;;;;;;;2.62;75.41;98883.85;1791539;80;21146;-67
2021/04/27 02:52:27;;;;;;;9.23;4.50;;;;;;;2.63;75.55;98885.99;1791770;80;21584;-66
2021/04/27 02:54:59;;;;;;;10.85;4.53;;;;;;;2.61;75.74;98885.91;1789889;80;21259;-66
2021/04/27 02:57:27;;;;;;;8.80;4.70;;;;;;;2.60;75.96;98885.46;1791456;80;21146;-64
2021/04/27 02:59:55;;;;;;;11.08;5.85;;;;;;;2.57;76.34;98886.20;1791506;80;21122;-67
2021/04/27 03:02:23;;;;;;;9.00;4.72;;;;;;;2.54;76.46;98891.15;1791780;80;21142;-64
2021/04/27 03:04:51;;;;;;;7.58;4.20;;;;;;;2.55;76.74;98893.31;1791560;80;21265;-66
2021/04/27 03:07:36;;;;;;;8.13;4.03;;;;;;;2.58;77.10;98892.16;1791456;80;21197;-64
2021/04/27 03:10:05;;;;;;;11.22;4.60;;;;;;;2.56;77.19;98889.54;1790053;80;21299;-64
2021/04/27 03:12:34;;;;;;;7.53;4.47;;;;;;;2.56;77.39;98888.67;1855731;77;21170;-65
2021/04/27 03:15:06;;;;;;;7.28;4.55;;;;;;;2.59;77.47;98884.98;1855415;77;21577;-64
2021/04/27 03:17:38;;;;;;;8.40;4.12;;;;;;;2.60;77.57;98891.83;1855759;77;21285;-66
2021/04/27 03:20:10;;;;;;;7.83;4.20;;;;;;;2.59;77.65;98895.16;1855651;77;21169;-64
2021/04/27 03:22:44;;;;;;;7.72;4.00;;;;;;;2.60;77.89;98891.83;1781590;80;21134;-65
2021/04/27 03:25:14;;;;;;;6.22;3.83;;;;;;;2.61;78.04;98894.83;1854981;77;21154;-64
2021/04/27 03:27:45;;;;;;;12.60;5.45;;;;;;;2.59;78.08;98897.71;1854327;77;21256;-65
2021/04/27 03:30:19;;;;;;;9.85;4.87;;;;;;;2.62;78.18;98899.14;1776698;80;21162;-64
2021/04/27 03:32:48;;;;;;;8.75;4.60;;;;;;;2.69;78.27;98896.42;1846432;77;21155;-67
2021/04/27 03:35:16;;;;;;;13.62;4.67;;;;;;;2.76;78.26;98903.10;1830392;77;21154;-66
2021/04/27 03:37:45;;;;;;;12.30;4.60;;;;;;;2.81;78.19;98897.79;1833057;77;21110;-68
2021/04/27 03:40:13;;;;;;;12.65;4.55;;;;;;;2.83;78.13;98902.55;1854736;77;21154;-67
2021/04/27 03:42:42;;;;;;;8.53;4.65;;;;;;;2.91;78.13;98912.19;1854753;77;21576;-66
2021/04/27 03:45:16;;;;;;;8.38;4.40;;;;;;;2.96;78.05;98909.42;1854973;77;21106;-66
2021/04/27 03:47:45;;;;;;;10.45;4.17;;;;;;;3.00;77.95;98907.06;1771082;80;21251;-65
2021/04/27 03:50:19;;;;;;;9.53;4.28;;;;;;;3.05;77.80;98911.04;1830689;77;21145;-65
2021/04/27 03:52:49;;;;;;;9.90;4.60;;;;;;;3.03;77.74;98905.90;1748527;80;21289;-65
2021/04/27 03:55:19;;;;;;;8.55;4.40;;;;;;;3.08;77.79;98907.36;1821617;79;21740;-64
2021/04/27 03:57:47;;;;;;;9.73;5.92;;;;;;;3.11;77.63;98903.66;1821562;79;21162;-63
2021/04/27 04:00:16;;;;;;;6.90;4.10;;;;;;;3.15;77.53;98895.70;1821566;79;21564;-64
2021/04/27 04:02:46;;;;;;;7.05;3.98;;;;;;;3.11;77.48;98907.48;1821524;79;21146;-65
2021/04/27 04:05:15;;;;;;;9.10;4.37;;;;;;;3.13;77.43;98910.97;1821594;79;21134;-65
2021/04/27 04:07:43;;;;;;;9.13;4.35;;;;;;;3.11;77.62;98912.58;1821644;79;21671;-65
2021/04/27 04:10:14;;;;;;;9.00;4.70;;;;;;;3.22;77.52;98910.03;1818153;78;21564;-64
2021/04/27 04:12:44;;;;;;;6.85;4.17;;;;;;;3.23;77.42;98910.89;1817243;78;21260;-65
2021/04/27 04:15:18;;;;;;;10.80;4.90;;;;;;;3.33;77.35;98910.44;1820487;78;21268;-64
2021/04/27 04:17:51;;;;;;;8.28;4.80;;;;;;;3.42;77.24;98908.66;1815945;78;21271;-66
2021/04/27 04:20:22;;;;;;;7.80;4.47;;;;;;;3.47;77.17;98910.98;1818155;77;21086;-66
2021/04/27 04:23:07;;;;;;;7.33;4.50;;;;;;;3.60;76.98;98911.91;1816512;78;21111;-66
2021/04/27 04:25:35;;;;;;;8.78;4.30;;;;;;;3.74;76.71;98908.61;1738782;82;21142;-67
2021/04/27 04:28:04;;;;;;;6.47;4.10;;;;;;;3.95;76.36;98913.63;1817907;78;21154;-66
2021/04/27 04:30:33;;;;;;;11.12;3.87;;;;;;;4.13;75.83;98905.75;1816769;78;21146;-66
2021/04/27 04:33:20;;;;;;;8.05;4.40;;;;;;;4.29;75.51;98905.88;1822546;78;21078;-65
2021/04/27 04:35:52;;;;;;;5.75;3.85;;;;;;;4.54;74.88;98905.90;1812885;77;21110;-65
2021/04/27 04:38:28;;;;;;;9.20;4.15;;;;;;;4.73;74.08;98903.57;1818872;78;21139;-66
2021/04/27 04:41:14;;;;;;;7.22;4.30;;;;;;;4.69;73.17;98902.13;1738376;82;21122;-65
2021/04/27 04:43:59;;;;;;;8.85;5.25;;;;;;;4.64;73.21;98905.81;1817747;78;21676;-65
2021/04/27 04:46:29;;;;;;;9.00;4.53;;;;;;;4.73;73.07;98909.06;1717060;82;22142;-65
2021/04/27 04:49:15;;;;;;;9.18;4.65;;;;;;;4.79;72.40;98897.78;1820440;78;21150;-66
2021/04/27 04:51:55;;;;;;;10.10;4.67;;;;;;;4.80;72.38;98905.90;1818253;78;21169;-66
2021/04/27 04:54:28;;;;;;;8.53;4.50;;;;;;;4.96;72.00;98909.81;1785564;78;21537;-66
2021/04/27 04:56:57;;;;;;;7.58;4.33;;;;;;;5.05;71.47;98918.21;1818161;78;21134;-67
2021/04/27 04:59:25;;;;;;;10.20;4.08;;;;;;;5.10;71.40;98912.83;1817311;77;21086;-66
2021/04/27 05:01:53;;;;;;;8.15;4.22;;;;;;;5.22;70.87;98913.23;1820823;77;21244;-65
2021/04/27 05:04:29;;;;;;;6.83;3.85;;;;;;;5.38;70.69;98915.42;1804978;78;21277;-66
2021/04/27 05:07:14;;;;;;;6.85;3.65;;;;;;;5.60;69.96;98911.83;1820245;78;21185;-65
2021/04/27 05:10:00;;;;;;;8.18;4.00;;;;;;;5.85;69.31;98915.09;1750224;82;21173;-66
2021/04/27 05:12:30;;;;;;;6.42;4.10;;;;;;;6.11;68.31;98922.30;1814943;78;21279;-65
2021/04/27 05:15:03;;;;;;;7.55;4.17;;;;;;;6.27;67.41;98927.42;1820766;77;21244;-65
2021/04/27 05:17:34;;;;;;;;;;;;;;;6.34;66.47;98922.06;1819992;78;21210;-65
2021/04/27 05:20:04;;;;;;;11.05;4.17;;;;;;;6.37;66.70;98928.54;1812819;78;20226;-66
2021/04/27 05:22:35;;;;;;;7.20;3.77;;;;;;;7.30;65.95;98928.73;1812501;79;21217;-56
2021/04/27 05:25:05;;;;;;;7.00;3.42;;;;;;;8.60;63.23;98929.31;1723077;82;21190;-65
2021/04/27 05:27:33;;;;;;;8.00;3.90;;;;;;;9.56;60.26;98927.45;1812773;79;21114;-64
2021/04/27 05:30:03;;;;;;;6.42;3.50;;;;;;;10.35;57.12;98930.64;1812938;79;21622;-64
2021/04/27 05:32:31;;;;;;;5.35;3.15;;;;;;;10.64;55.49;98929.68;1813024;79;21149;-67
2021/04/27 05:34:59;;;;;;;5.00;2.95;;;;;;;11.00;53.66;98925.27;1812886;78;21119;-68
2021/04/27 05:37:27;;;;;;;5.75;3.15;;;;;;;11.46;52.24;98930.79;1779036;79;21138;-67
2021/04/27 05:39:54;;;;;;;5.30;2.98;;;;;;;12.17;50.44;98933.80;1777671;79;21305;-66
2021/04/27 05:42:22;;;;;;;5.12;2.83;;;;;;;12.98;48.97;98933.14;1812510;79;21150;-68
2021/04/27 05:44:51;;;;;;;8.20;4.03;;;;;;;13.75;46.84;98929.22;1775234;81;21340;-68
2021/04/27 05:47:19;;;;;;;7.50;3.58;;;;;;;14.57;45.27;98936.27;1776197;80;21301;-69
2021/04/27 05:49:46;;;;;;;7.47;3.80;;;;;;;15.56;42.67;98928.14;1812468;79;21281;-65
2021/04/27 05:52:14;;;;;;;5.05;2.75;;;;;;;16.13;41.28;98928.44;1811557;79;21154;-68
2021/04/27 05:54:42;;;;;;;6.75;3.00;;;;;;;16.60;39.83;98932.59;1812511;79;21170;-66
2021/04/27 05:57:09;;;;;;;6.17;3.15;;;;;;;17.07;38.96;98937.14;1812553;79;21314;-67
2021/04/27 05:59:37;;;;;;;6.30;2.80;;;;;;;17.69;37.38;98940.02;1776790;79;21123;-67
2021/04/27 06:02:05;;;;;;;5.55;2.67;;;;;;;18.04;36.40;98941.10;1812861;79;21282;-66
2021/04/27 06:04:32;;;;;;;5.05;2.25;;;;;;;18.42;35.12;98945.58;1812997;79;21525;-68
2021/04/27 06:07:00;;;;;;;4.75;2.58;;;;;;;18.56;34.71;98947.88;1812672;79;21292;-71
2021/04/27 06:09:27;;;;;;;4.58;2.45;;;;;;;18.83;33.24;98949.92;1776616;81;21167;-69
2021/04/27 06:11:56;;;;;;;5.53;2.58;;;;;;;18.69;33.09;98948.02;1776697;80;21151;-70
2021/04/27 06:14:24;;;;;;;3.87;2.10;;;;;;;19.35;32.10;98950.42;1812873;79;21209;-71
2021/04/27 06:16:52;;;;;;;4.60;2.60;;;;;;;19.52;31.48;98952.62;1776640;79;21143;-69
2021/04/27 06:19:20;;;;;;;3.92;2.10;;;;;;;20.05;31.52;98956.04;1776864;81;21277;-68
2021/04/27 06:21:47;;;;;;;5.37;2.42;;;;;;;20.35;30.57;98954.31;1776721;80;21562;-71
2021/04/27 06:24:15;;;;;;;2.95;1.90;;;;;;;19.51;30.81;98956.13;1812991;79;21257;-67
2021/04/27 06:26:43;;;;;;;4.03;2.45;;;;;;;18.09;32.28;98958.43;1812657;79;21604;-68
2021/04/27 06:29:11;;;;;;;5.47;2.40;;;;;;;16.82;34.26;98952.29;1776637;79;21532;-68
2021/04/27 06:31:39;;;;;;;4.97;2.00;;;;;;;16.82;34.26;98952.29;1812813;79;21272;-67
2021/04/27 06:34:06;;;;;;;3.58;1.90;;;;;;;16.46;34.34;98951.00;1812799;79;21304;-69
2021/04/27 06:36:35;;;;;;;5.37;2.20;;;;;;;15.98;34.18;98953.34;1776519;81;21214;-70
2021/04/27 06:39:06;;;;;;;3.67;1.92;;;;;;;15.67;34.94;98954.90;1812872;79;21684;-71
2021/04/27 06:41:34;;;;;;;6.08;1.90;;;;;;;15.78;34.90;98950.50;1776794;81;21151;-69
2021/04/27 06:44:03;;;;;;;6.58;2.25;;;;;;;16.21;33.91;98947.42;1812870;79;21162;-69
2021/04/27 06:46:32;;;;;;;2.98;1.67;;;;;;;16.11;33.55;98957.97;1767361;81;21144;-71
2021/04/27 06:49:00;;;;;;;3.45;1.77;;;;;;;16.37;33.24;98955.90;1817443;78;21263;-72
2021/04/27 06:51:28;;;;;;;4.00;1.82;;;;;;;16.61;33.01;98951.23;1747875;81;21329;-70
2021/04/27 06:53:58;;;;;;;3.15;1.80;;;;;;;17.09;32.31;98957.96;1812557;78;21150;-71
2021/04/27 06:56:27;;;;;;;4.15;2.10;;;;;;;17.39;31.42;98959.22;1824039;78;21120;-71
2021/04/27 06:58:56;;;;;;;3.20;1.80;;;;;;;17.09;31.83;98960.12;1815346;77;21163;-69
2021/04/27 07:01:25;;;;;;;8.05;2.20;;;;;;;17.60;31.42;98961.89;1833246;77;21141;-69
2021/04/27 07:03:53;;;;;;;3.87;1.75;;;;;;;18.29;30.38;98964.53;1757188;81;21281;-71
2021/04/27 07:06:20;;;;;;;4.25;2.12;;;;;;;18.57;29.89;98957.43;1814073;78;21149;-68
2021/04/27 07:08:48;;;;;;;4.25;2.15;;;;;;;18.57;29.89;98957.43;1810995;79;21230;-68
2021/04/27 07:11:16;;;;;;;6.47;1.85;;;;;;;19.96;27.67;98959.78;1816425;78;21459;-68
2021/04/27 07:13:44;;;;;;;3.52;1.80;;;;;;;19.68;27.33;98953.97;1825268;78;21177;-69
2021/04/27 07:16:11;;;;;;;4.58;2.15;;;;;;;19.17;28.00;98955.66;1827278;77;21138;-67
2021/04/27 07:18:39;;;;;;;4.95;1.98;;;;;;;18.96;28.43;98957.48;1827441;77;21115;-71
2021/04/27 07:21:07;;;;;;;3.70;1.80;;;;;;;18.81;28.37;98949.09;1827147;77;21324;-70
2021/04/27 07:23:34;;;;;;;4.75;1.60;;;;;;;19.26;28.07;98954.14;1827108;78;21296;-72
2021/04/27 07:26:04;;;;;;;2.77;1.32;;;;;;;20.22;27.09;98951.64;1827221;77;21107;-71
2021/04/27 07:28:32;;;;;;;4.78;1.60;;;;;;;21.06;24.95;98950.90;1825321;77;21168;-69
2021/04/27 07:31:00;;;;;;;3.70;1.70;;;;;;;20.41;25.02;98946.75;1824178;77;21161;-68
2021/04/27 07:33:28;;;;;;;3.30;1.40;;;;;;;20.09;25.37;98944.13;1823944;77;21256;-69
2021/04/27 07:35:56;;;;;;;4.70;1.70;;;;;;;20.18;24.86;98961.83;1810096;78;21209;-71
2021/04/27 07:38:25;;;;;;;3.33;1.37;;;;;;;20.42;24.48;98951.08;1816236;78;21141;-67
2021/04/27 07:40:58;;;;;;;2.60;1.20;;;;;;;20.29;24.39;98959.75;1798867;79;21148;-72
2021/04/27 07:43:27;;;;;;;4.55;1.60;;;;;;;20.16;24.64;98956.16;1805371;79;21149;-72
2021/04/27 07:45:58;;;;;;;3.47;1.85;;;;;;;19.57;25.25;98959.91;1818683;77;21261;-68
2021/04/27 07:48:27;;;;;;;3.02;1.50;;;;;;;19.33;25.25;98960.52;1810777;78;21172;-67
2021/04/27 07:50:57;;;;;;;2.37;1.32;;;;;;;18.65;26.05;98962.07;1794683;78;21158;-71
2021/04/27 07:53:26;;;;;;;3.50;1.42;;;;;;;18.14;26.26;98972.26;1794905;79;21170;-67
2021/04/27 07:55:53;;;;;;;4.55;1.40;;;;;;;17.43;26.67;98960.91;1794503;79;21276;-71
2021/04/27 07:58:21;;;;;;;2.58;1.30;;;;;;;17.61;26.61;98957.56;1790314;79;21408;-68
2021/04/27 08:00:49;;;;;;;3.45;1.47;;;;;;;17.63;26.24;98955.77;1778212;79;21294;-67
2021/04/27 08:03:16;;;;;;;3.47;1.47;;;;;;;17.84;26.22;98963.25;1774089;79;21171;-69
2021/04/27 08:05:46;;;;;;;5.10;1.60;;;;;;;17.79;26.23;98948.09;1776849;79;21154;-75
2021/04/27 08:08:14;;;;;;;5.03;1.70;;;;;;;17.77;26.23;98948.55;1781437;79;21201;-68
2021/04/27 08:10:43;;;;;;;2.95;1.52;;;;;;;17.42;26.73;98941.34;1773863;81;21151;-69
2021/04/27 08:13:12;;;;;;;3.95;1.75;;;;;;;17.44;26.71;98940.44;1792071;78;21162;-67
2021/04/27 08:15:41;;;;;;;3.75;1.70;;;;;;;17.51;27.01;98939.45;1821386;78;21143;-66
2021/04/27 08:18:09;;;;;;;3.47;1.85;;;;;;;17.26;27.56;98934.23;1821318;79;21130;-68
2021/04/27 08:20:38;;;;;;;2.80;1.40;;;;;;;17.37;27.04;98938.81;1821250;79;21331;-70
2021/04/27 08:23:06;;;;;;;4.10;1.70;;;;;;;17.07;26.85;98934.95;1799511;79;21166;-72
2021/04/27 08:25:36;;;;;;;5.47;1.45;;;;;;;16.55;27.13;98939.16;1796633;79;21439;-71
2021/04/27 08:28:04;;;;;;;3.83;1.50;;;;;;;17.21;27.00;98939.97;1793740;79;21142;-73
2021/04/27 08:30:33;;;;;;;3.17;1.77;;;;;;;18.20;25.37;98940.78;1789063;80;21158;-73
2021/04/27 08:33:01;;;;;;;3.12;1.60;;;;;;;18.48;25.30;98947.20;1788998;80;21161;-68
2021/04/27 08:35:29;;;;;;;2.80;1.45;;;;;;;18.65;25.67;98932.86;1789271;80;21146;-70
2021/04/27 08:37:58;;;;;;;3.33;1.42;;;;;;;19.13;24.96;98938.30;1789290;80;21138;-69
2021/04/27 08:40:26;;;;;;;4.10;1.60;;;;;;;19.58;24.22;98939.37;1789071;80;21572;-71
2021/04/27 08:42:54;;;;;;;4.03;1.77;;;;;;;19.55;23.72;98943.38;1789154;80;21154;-73
2021/04/27 08:45:21;;;;;;;3.17;1.70;;;;;;;19.26;23.71;98934.52;1789038;80;21157;-67
2021/04/27 08:47:49;;;;;;;3.90;1.50;;;;;;;19.06;24.09;98939.38;1789342;79;21142;-70
2021/04/27 08:50:18;;;;;;;2.92;1.57;;;;;;;18.41;24.34;98947.30;1789013;80;21143;-67
2021/04/27 08:52:47;;;;;;;3.37;1.37;;;;;;;17.74;24.82;98946.01;1789252;79;21182;-71
2021/04/27 08:55:15;;;;;;;3.67;1.47;;;;;;;17.45;25.19;98939.53;1789279;79;21327;-67
2021/04/27 08:57:44;;;;;;;3.55;1.52;;;;;;;17.54;25.39;98942.00;1797547;79;21288;-70
2021/04/27 09:00:16;;;;;;;4.28;1.52;;;;;;;17.81;25.13;98934.60;1821537;79;21162;-68
2021/04/27 09:02:47;;;;;;;3.33;1.70;;;;;;;18.10;24.98;98936.63;1821253;79;21254;-69
2021/04/27 09:05:25;;;;;;;3.45;1.60;;;;;;;17.57;25.17;98934.55;1773768;79;21339;-72
2021/04/27 09:07:54;;;;;;;2.85;1.67;;;;;;;16.66;26.35;98935.98;1804847;79;21129;-69
2021/04/27 09:10:29;;;;;;;3.40;1.80;;;;;;;16.10;26.82;98925.84;1800559;79;21248;-68
2021/04/27 09:13:13;;;;;;;3.75;1.70;;;;;;;15.43;27.45;98926.09;1799850;79;21194;-69
2021/04/27 09:15:50;;;;;;;6.75;2.02;;;;;;;15.02;27.94;98925.16;1796262;79;21103;-69
2021/04/27 09:18:30;;;;;;;4.72;1.55;;;;;;;15.23;28.30;98916.31;1800567;79;21150;-69
2021/04/27 09:21:08;;;;;;;3.58;1.72;;;;;;;15.62;27.70;98921.56;1812588;79;21143;-68
2021/04/27 09:23:40;;;;;;;4.87;2.00;;;;;;;15.40;27.61;98921.79;1812767;79;21143;-68
2021/04/27 09:26:16;;;;;;;3.67;1.92;;;;;;;15.30;28.01;98911.05;1812597;79;21142;-68
2021/04/27 09:28:48;;;;;;;3.92;2.22;;;;;;;15.16;27.93;98915.49;1812678;79;21158;-68
2021/04/27 09:31:27;;;;;;;5.15;2.47;;;;;;;14.78;28.43;98922.28;1812682;79;21177;-69
2021/04/27 09:34:25;;;;;;;3.85;1.87;;;;;;;14.44;28.97;98924.61;1812909;79;21362;-68
2021/04/27 09:36:58;;;;;;;4.65;2.10;;;;;;;14.16;29.50;98926.92;1805492;79;21125;-70
2021/04/27 09:39:40;;;;;;;6.87;2.58;;;;;;;13.55;30.83;98922.33;1796493;79;21131;-71
2021/04/27 09:42:24;;;;;;;5.53;2.25;;;;;;;12.89;31.82;98926.20;1812749;79;21118;-70
2021/04/27 09:44:56;;;;;;;6.72;2.62;;;;;;;12.20;32.93;98921.30;1812650;79;21150;-70
2021/04/27 09:47:30;;;;;;;4.42;2.10;;;;;;;11.78;33.70;98924.97;1804816;79;21115;-69
2021/04/27 09:50:11;;;;;;;4.30;2.02;;;;;;;11.56;33.77;98925.70;1789212;79;21246;-67
2021/04/27 09:52:47;;;;;;;3.15;1.80;;;;;;;11.25;33.54;98919.03;1785806;78;21648;-67
2021/04/27 10:17:53;;;;;;;5.22;2.00;;;;;;;11.99;32.77;98911.75;1889864;76;22167;-67
2021/04/27 10:20:21;;;;;;;4.90;2.08;;;;;;;12.03;32.79;98920.79;1861116;77;21154;-69
2021/04/27 10:22:50;;;;;;;4.47;1.95;;;;;;;12.28;32.77;98910.11;1859430;77;21268;-68
2021/04/27 10:25:26;;;;;;;5.87;2.55;;;;;;;12.44;33.04;98910.16;1766476;79;21348;-68
2021/04/27 10:27:56;;;;;;;8.48;2.60;;;;;;;12.27;33.05;98907.10;1758873;80;21143;-71
2021/04/27 10:30:28;;;;;;;4.55;2.00;;;;;;;11.84;33.53;98909.48;1785532;80;21159;-71
2021/04/27 10:33:07;;;;;;;5.03;2.00;;;;;;;11.38;33.67;98914.81;1770533;80;21323;-69
2021/04/27 10:35:40;;;;;;;4.00;2.15;;;;;;;11.03;33.80;98907.22;1767391;80;21215;-69
2021/04/27 10:38:18;;;;;;;;;;;;;;;10.80;33.90;98910.89;1762802;80;21277;-70
2021/04/27 10:40:54;;;;;;;6.47;1.87;;;;;;;10.73;34.17;98912.11;1785323;80;20155;-72
2021/04/27 10:43:30;;;;;;;5.78;1.92;;;;;;;10.88;34.29;98913.55;1765961;81;21284;-69
2021/04/27 10:46:21;;;;;;;3.47;1.90;;;;;;;11.21;34.20;98909.52;1775312;81;21582;-67
2021/04/27 10:48:49;;;;;;;3.37;1.98;;;;;;;11.59;33.34;98908.91;1775357;81;21153;-70
2021/04/27 10:51:26;;;;;;;5.05;2.10;;;;;;;11.76;33.27;98909.88;1775351;81;21296;-68
2021/04/27 10:54:08;;;;;;;5.70;2.08;;;;;;;11.78;32.85;98902.11;1775375;81;21705;-67
2021/04/27 10:56:42;;;;;;;3.00;1.70;;;;;;;11.23;33.28;98898.77;1776148;79;21164;-67
2021/04/27 10:59:20;;;;;;;3.75;1.77;;;;;;;10.89;33.84;98902.78;1790249;78;21124;-68
2021/04/27 11:02:05;;;;;;;5.85;2.65;;;;;;;10.84;33.89;98897.17;1826429;78;21620;-67
2021/04/27 11:04:43;;;;;;;4.78;2.17;;;;;;;10.80;34.15;98892.83;1716011;80;21165;-71
2021/04/27 11:07:26;;;;;;;3.65;2.25;;;;;;;10.66;34.22;98893.14;1769310;80;21130;-68
2021/04/27 11:10:04;;;;;;;4.85;1.70;;;;;;;10.63;34.31;98891.80;1776534;80;21279;-68
2021/04/27 11:12:41;;;;;;;5.97;2.45;;;;;;;10.60;34.31;98895.22;1776367;80;21175;-70
2021/04/27 11:15:14;;;;;;;13.80;2.22;;;;;;;10.63;34.30;98896.56;1780006;79;21593;-70
2021/04/27 11:17:57;;;;;;;3.83;1.90;;;;;;;10.69;34.24;98886.72;1743727;80;21567;-70
2021/04/27 11:20:47;;;;;;;3.80;1.60;;;;;;;10.72;34.00;98887.17;1758665;81;21301;-69
2021/04/27 11:23:42;;;;;;;6.12;1.90;;;;;;;10.92;34.19;98883.47;1765589;80;21127;-70
2021/04/27 11:26:35;;;;;;;3.72;1.77;;;;;;;10.98;34.59;98882.22;1810754;79;21106;-67
2021/04/27 11:29:18;;;;;;;3.25;1.50;;;;;;;11.18;34.18;98880.65;1817121;78;21141;-69
2021/04/27 11:31:57;;;;;;;;;;;;;;;11.04;33.72;98883.14;1800265;79;21362;-68
2021/04/27 11:34:26;;;;;;;4.25;2.10;;;;;;;10.86;34.04;98881.68;1786497;80;20407;-68
2021/04/27 11:36:55;;;;;;;3.77;1.77;;;;;;;10.72;33.86;98884.59;1808634;79;21353;-70
2021/04/27 11:39:26;;;;;;;4.47;1.90;;;;;;;10.86;33.84;98871.35;1812520;78;21138;-69
2021/04/27 11:41:58;;;;;;;2.27;1.30;;;;;;;11.05;33.12;98878.84;1807025;78;21280;-69
2021/04/27 11:44:38;;;;;;;3.85;1.85;;;;;;;11.20;32.59;98872.92;1803104;79;21556;-67
2021/04/27 11:47:17;;;;;;;3.27;1.70;;;;;;;11.43;32.35;98871.34;1800985;78;21126;-67
2021/04/27 11:49:53;;;;;;;3.22;1.55;;;;;;;11.65;32.36;98867.57;1806250;79;21620;-68
2021/04/27 11:53:02;;;;;;;3.83;1.52;;;;;;;11.93;32.20;98868.59;1818624;79;21284;-68
2021/04/27 11:55:36;;;;;;;2.50;1.35;;;;;;;12.13;31.60;98872.55;1808652;79;21150;-68
2021/04/27 11:58:13;;;;;;;2.90;1.60;;;;;;;12.11;31.71;98871.27;1807371;78;21146;-68
2021/04/27 12:00:49;;;;;;;3.30;1.85;;;;;;;12.22;31.69;98875.17;1792944;79;21256;-68
2021/04/27 12:03:34;;;;;;;4.00;1.65;;;;;;;12.20;31.28;98875.59;1818331;79;21280;-70
2021/04/27 12:06:17;;;;;;;3.05;1.90;;;;;;;11.94;31.66;98873.78;1796088;79;21122;-67
2021/04/27 12:08:49;;;;;;;4.03;1.50;;;;;;;11.83;32.21;98875.44;1809116;79;21161;-69
2021/04/27 12:11:25;;;;;;;6.80;1.60;;;;;;;11.88;32.19;98876.36;1800321;79;21299;-70
2021/04/27 12:14:13;;;;;;;2.50;1.47;;;;;;;12.03;31.90;98872.94;1784750;80;21303;-69
2021/04/27 12:16:44;;;;;;;8.85;2.02;;;;;;;12.27;31.96;98872.17;1791184;79;21190;-68
2021/04/27 12:19:17;;;;;;;3.58;1.50;;;;;;;12.42;31.93;98875.67;1812996;78;21248;-68
2021/04/27 12:21:56;;;;;;;2.92;1.40;;;;;;;12.32;31.61;98871.75;1812571;79;21154;-69
2021/04/27 12:24:34;;;;;;;3.05;1.70;;;;;;;12.25;31.73;98873.88;1812958;78;21100;-68